createdAt,value
2017-11-23T00:00:27.750Z,97.26
2017-11-23T00:01:27.735Z,96.59
2017-11-23T00:02:27.751Z,96.97
2017-11-23T00:03:27.709Z,96.59
2017-11-23T00:04:27.691Z,97.45
2017-11-23T00:05:27.692Z,96.97
2017-11-23T00:06:27.676Z,96.78
2017-11-23T00:07:27.661Z,97.26
2017-11-23T00:08:27.648Z,96.78
2017-11-23T00:09:27.365Z,97.26
2017-11-23T00:10:27.628Z,97.35
2017-11-23T00:11:27.609Z,96.69
2017-11-23T00:12:27.575Z,97.26
2017-11-23T00:13:27.573Z,96.88
2017-11-23T00:14:27.549Z,97.26
2017-11-23T00:15:27.568Z,97.26
2017-11-23T00:16:27.526Z,97.45
2017-11-23T00:17:27.527Z,96.88
2017-11-23T00:18:27.508Z,97.16
2017-11-23T00:19:27.491Z,96.88
2017-11-23T00:20:27.497Z,97.26
2017-11-23T00:21:27.197Z,97.26
2017-11-23T00:22:27.455Z,96.88
2017-11-23T00:23:27.187Z,96.78
2017-11-23T00:24:27.432Z,96.88
2017-11-23T00:25:27.412Z,96.88
2017-11-23T00:26:27.414Z,96.88
2017-11-23T00:27:27.390Z,96.59
2017-11-23T00:28:27.386Z,96.88
2017-11-23T00:29:27.357Z,96.78
2017-11-23T00:30:27.353Z,96.88
2017-11-23T00:31:27.073Z,96.88
2017-11-23T00:32:27.316Z,96.88
2017-11-23T00:33:27.307Z,96.69
2017-11-23T00:34:27.298Z,96.69
2017-11-23T00:35:27.274Z,96.88
2017-11-23T00:36:27.288Z,96.69
2017-11-23T00:37:27.256Z,96.88
2017-11-23T00:38:27.250Z,96.78
2017-11-23T00:39:27.238Z,96.69
2017-11-23T00:40:27.210Z,96.78
2017-11-23T00:41:27.201Z,96.69
2017-11-23T00:42:26.922Z,96.88
2017-11-23T00:43:27.163Z,97.07
2017-11-23T00:44:27.166Z,97.07
2017-11-23T00:45:27.147Z,96.97
2017-11-23T00:46:27.147Z,96.88
2017-11-23T00:47:26.860Z,96.97
2017-11-23T00:48:27.120Z,97.16
2017-11-23T00:49:27.089Z,97.07
2017-11-23T00:50:27.068Z,96.69
2017-11-23T00:51:26.803Z,97.07
2017-11-23T00:52:27.054Z,96.88
2017-11-23T00:53:27.051Z,97.07
2017-11-23T00:54:27.029Z,97.16
2017-11-23T00:55:27.071Z,96.88
2017-11-23T00:56:26.780Z,97.07
2017-11-23T00:57:27.033Z,96.69
2017-11-23T00:58:27.028Z,97.07
2017-11-23T00:59:26.741Z,96.97
2017-11-23T01:00:27.004Z,96.97
2017-11-23T01:01:26.988Z,97.07
2017-11-23T01:02:26.988Z,96.88
2017-11-23T01:03:26.962Z,97.07
2017-11-23T01:04:26.960Z,97.07
2017-11-23T01:05:26.929Z,96.78
2017-11-23T01:06:26.885Z,97.07
2017-11-23T01:07:26.857Z,96.78
2017-11-23T01:08:26.848Z,97.07
2017-11-23T01:09:26.825Z,97.07
2017-11-23T01:10:26.805Z,97.07
2017-11-23T01:11:26.814Z,96.97
2017-11-23T01:12:26.793Z,97.07
2017-11-23T01:13:26.782Z,96.69
2017-11-23T01:14:26.764Z,97.07
2017-11-23T01:15:26.487Z,97.07
2017-11-23T01:16:26.728Z,96.88
2017-11-23T01:17:26.720Z,96.78
2017-11-23T01:18:26.766Z,96.78
2017-11-23T01:19:26.708Z,96.78
2017-11-23T01:20:26.410Z,96.88
2017-11-23T01:21:26.666Z,97.07
2017-11-23T01:22:26.660Z,96.88
2017-11-23T01:23:26.644Z,96.97
2017-11-23T01:24:26.629Z,96.5
2017-11-23T01:25:26.610Z,96.97
2017-11-23T01:26:26.612Z,96.88
2017-11-23T01:27:26.603Z,96.97
2017-11-23T01:28:26.578Z,96.59
2017-11-23T01:29:26.571Z,96.5
2017-11-23T01:30:26.543Z,97.26
2017-11-23T01:31:26.543Z,96.5
2017-11-23T01:32:26.517Z,96.41
2017-11-23T01:33:26.519Z,96.41
2017-11-23T01:34:26.496Z,96.59
2017-11-23T01:35:26.515Z,96.31
2017-11-23T01:36:26.454Z,96.41
2017-11-23T01:37:26.458Z,96.59
2017-11-23T01:38:26.464Z,96.5
2017-11-23T01:39:26.436Z,96.5
2017-11-23T01:40:26.417Z,96.5
2017-11-23T01:41:26.401Z,96.59
2017-11-23T01:42:26.380Z,96.5
2017-11-23T01:43:26.368Z,96.31
2017-11-23T01:44:26.098Z,96.22
2017-11-23T01:45:26.356Z,96.31
2017-11-23T01:46:26.325Z,96.5
2017-11-23T01:47:26.331Z,96.55
2017-11-23T01:48:26.304Z,96.64
2017-11-23T01:49:26.305Z,96.36
2017-11-23T01:50:26.301Z,96.36
2017-11-23T01:51:26.282Z,96.45
2017-11-23T01:52:26.259Z,96.55
2017-11-23T01:53:26.254Z,96.55
2017-11-23T01:54:26.230Z,96.64
2017-11-23T01:55:26.208Z,96.73
2017-11-23T01:56:26.205Z,96.73
2017-11-23T01:57:26.195Z,96.83
2017-11-23T01:58:26.171Z,96.41
2017-11-23T01:59:26.180Z,96.31
2017-11-23T02:00:25.880Z,96.31
2017-11-23T02:01:25.879Z,96.36
2017-11-23T02:02:26.127Z,96.55
2017-11-23T02:03:26.110Z,96.55
2017-11-23T02:04:26.084Z,96.36
2017-11-23T02:05:26.094Z,96.36
2017-11-23T02:06:26.061Z,96.55
2017-11-23T02:07:26.056Z,96.5
2017-11-23T02:08:26.045Z,96.73
2017-11-23T02:09:26.038Z,96.69
2017-11-23T02:10:26.022Z,96.69
2017-11-23T02:11:26.020Z,96.59
2017-11-23T02:12:26.001Z,96.59
2017-11-23T02:13:25.968Z,96.59
2017-11-23T02:14:25.967Z,96.59
2017-11-23T02:15:25.695Z,96.69
2017-11-23T02:16:25.937Z,96.5
2017-11-23T02:17:25.924Z,96.59
2017-11-23T02:18:25.925Z,96.5
2017-11-23T02:19:25.913Z,96.59
2017-11-23T02:20:25.893Z,96.69
2017-11-23T02:21:25.876Z,96.5
2017-11-23T02:22:25.862Z,96.5
2017-11-23T02:23:25.860Z,96.5
2017-11-23T02:24:25.836Z,96.69
2017-11-23T02:25:25.830Z,96.59
2017-11-23T02:26:25.811Z,96.5
2017-11-23T02:27:25.814Z,97.16
2017-11-23T02:28:25.779Z,97.16
2017-11-23T02:29:25.780Z,97.16
2017-11-23T02:30:25.754Z,96.78
2017-11-23T02:31:25.752Z,96.41
2017-11-23T02:32:25.746Z,96.88
2017-11-23T02:33:25.720Z,96.5
2017-11-23T02:34:25.729Z,96.69
2017-11-23T02:35:25.428Z,96.41
2017-11-23T02:36:25.683Z,96.41
2017-11-23T02:37:25.661Z,97.07
2017-11-23T02:38:25.665Z,96.22
2017-11-23T02:39:25.636Z,96.69
2017-11-23T02:40:25.636Z,96.41
2017-11-23T02:41:25.615Z,96.59
2017-11-23T02:42:25.606Z,96.59
2017-11-23T02:43:25.588Z,96.64
2017-11-23T02:44:25.577Z,96.55
2017-11-23T02:45:25.561Z,97.02
2017-11-23T02:46:25.543Z,96.73
2017-11-23T02:47:25.541Z,96.45
2017-11-23T02:48:25.529Z,96.64
2017-11-23T02:49:25.505Z,96.55
2017-11-23T02:50:25.493Z,96.55
2017-11-23T02:51:25.468Z,96.55
2017-11-23T02:52:25.467Z,96.55
2017-11-23T02:53:25.448Z,96.5
2017-11-23T02:54:25.446Z,96.55
2017-11-23T02:55:25.426Z,96.5
2017-11-23T02:56:25.425Z,96.55
2017-11-23T02:57:25.391Z,96.36
2017-11-23T02:58:25.391Z,96.83
2017-11-23T02:59:25.375Z,96.73
2017-11-23T03:00:25.372Z,96.59
2017-11-23T03:01:25.345Z,96.55
2017-11-23T03:02:25.334Z,96.64
2017-11-23T03:03:25.329Z,96.73
2017-11-23T03:04:25.309Z,96.55
2017-11-23T03:05:25.302Z,96.73
2017-11-23T03:06:25.290Z,96.73
2017-11-23T03:07:25.278Z,96.41
2017-11-23T03:08:25.249Z,96.73
2017-11-23T03:09:25.250Z,96.78
2017-11-23T03:10:25.224Z,96.83
2017-11-23T03:11:25.221Z,96.73
2017-11-23T03:12:25.202Z,96.92
2017-11-23T03:13:25.183Z,96.55
2017-11-23T03:14:25.183Z,97.31
2017-11-23T03:15:25.171Z,96.45
2017-11-23T03:16:25.161Z,96.45
2017-11-23T03:17:25.148Z,96.41
2017-11-23T03:18:25.130Z,96.83
2017-11-23T03:19:25.108Z,96.64
2017-11-23T03:20:25.091Z,96.64
2017-11-23T03:21:25.086Z,97.12
2017-11-23T03:22:25.077Z,96.45
2017-11-23T03:23:25.067Z,96.45
2017-11-23T03:24:25.042Z,96.55
2017-11-23T03:25:25.038Z,96.73
2017-11-23T03:26:24.756Z,96.45
2017-11-23T03:27:25.014Z,96.73
2017-11-23T03:28:24.993Z,96.45
2017-11-23T03:29:24.990Z,96.45
2017-11-23T03:30:24.973Z,96.45
2017-11-23T03:31:24.955Z,96.45
2017-11-23T03:32:24.679Z,96.55
2017-11-23T03:33:24.925Z,97.12
2017-11-23T03:34:24.915Z,96.83
2017-11-23T03:35:24.900Z,96.64
2017-11-23T03:36:24.884Z,96.41
2017-11-23T03:37:24.875Z,96.5
2017-11-23T03:38:24.864Z,96.69
2017-11-23T03:39:24.854Z,96.73
2017-11-23T03:40:24.836Z,96.55
2017-11-23T03:41:24.830Z,96.83
2017-11-23T03:42:24.813Z,97.31
2017-11-23T03:43:24.815Z,97.02
2017-11-23T03:44:24.787Z,97.31
2017-11-23T03:45:24.778Z,97.12
2017-11-23T03:46:24.759Z,97.02
2017-11-23T03:47:24.755Z,96.45
2017-11-23T03:48:24.735Z,97.12
2017-11-23T03:49:24.720Z,96.45
2017-11-23T03:50:24.712Z,97.31
2017-11-23T03:51:24.701Z,97.12
2017-11-23T03:52:24.683Z,96.45
2017-11-23T03:53:24.667Z,96.55
2017-11-23T03:54:24.653Z,96.5
2017-11-23T03:55:24.642Z,96.55
2017-11-23T03:56:24.632Z,97.31
2017-11-23T03:57:24.620Z,97.12
2017-11-23T03:58:24.608Z,96.73
2017-11-23T03:59:24.588Z,97.12
2017-11-23T04:00:24.588Z,96.55
2017-11-23T04:01:24.554Z,97.12
2017-11-23T04:02:24.546Z,97.26
2017-11-23T04:03:24.535Z,96.92
2017-11-23T04:04:24.545Z,96.92
2017-11-23T04:05:24.510Z,96.92
2017-11-23T04:06:24.502Z,96.55
2017-11-23T04:07:24.498Z,96.64
2017-11-23T04:08:24.472Z,96.5
2017-11-23T04:09:24.451Z,96.55
2017-11-23T04:10:24.447Z,96.64
2017-11-23T04:11:24.426Z,96.92
2017-11-23T04:12:24.413Z,97.02
2017-11-23T04:13:24.396Z,96.55
2017-11-23T04:14:24.408Z,96.92
2017-11-23T04:15:24.371Z,97.31
2017-11-23T04:16:24.371Z,97.45
2017-11-23T04:17:24.352Z,97.16
2017-11-23T04:18:24.337Z,97.07
2017-11-23T04:19:24.334Z,96.78
2017-11-23T04:20:24.321Z,97.07
2017-11-23T04:21:24.301Z,96.88
2017-11-23T04:22:24.279Z,97.26
2017-11-23T04:23:24.261Z,97.07
2017-11-23T04:24:24.274Z,97.07
2017-11-23T04:25:24.252Z,96.69
2017-11-23T04:26:24.225Z,96.69
2017-11-23T04:27:24.233Z,96.88
2017-11-23T04:28:24.208Z,97.16
2017-11-23T04:29:24.181Z,97.26
2017-11-23T04:30:24.180Z,96.97
2017-11-23T04:31:24.166Z,97.16
2017-11-23T04:32:24.150Z,96.88
2017-11-23T04:33:24.135Z,96.88
2017-11-23T04:34:24.118Z,96.97
2017-11-23T04:35:24.114Z,96.97
2017-11-23T04:36:24.111Z,96.88
2017-11-23T04:37:24.103Z,97.07
2017-11-23T04:38:24.077Z,96.97
2017-11-23T04:39:24.059Z,97.16
2017-11-23T04:40:24.051Z,97.07
2017-11-23T04:41:24.033Z,96.97
2017-11-23T04:42:24.026Z,96.69
2017-11-23T04:43:23.753Z,97.16
2017-11-23T04:44:23.734Z,97.07
2017-11-23T04:45:23.990Z,97.07
2017-11-23T04:46:23.979Z,97.07
2017-11-23T04:47:23.955Z,96.88
2017-11-23T04:48:23.948Z,96.97
2017-11-23T04:49:23.929Z,96.88
2017-11-23T04:50:23.923Z,96.88
2017-11-23T04:51:23.908Z,97.35
2017-11-23T04:52:23.889Z,97.35
2017-11-23T04:53:23.881Z,97.07
2017-11-23T04:54:23.852Z,97.16
2017-11-23T04:55:23.852Z,97.16
2017-11-23T04:56:23.828Z,97.26
2017-11-23T04:57:23.821Z,97.45
2017-11-23T04:58:23.810Z,97.45
2017-11-23T04:59:23.805Z,97.26
2017-11-23T05:00:23.793Z,97.45
2017-11-23T05:01:23.777Z,97.26
2017-11-23T05:02:23.754Z,97.64
2017-11-23T05:03:23.754Z,97.45
2017-11-23T05:04:23.718Z,97.26
2017-11-23T05:05:23.718Z,97.26
2017-11-23T05:06:23.695Z,97.73
2017-11-23T05:07:23.679Z,97.07
2017-11-23T05:08:23.682Z,97.73
2017-11-23T05:09:23.664Z,97.73
2017-11-23T05:10:23.384Z,97.35
2017-11-23T05:11:23.622Z,97.26
2017-11-23T05:12:23.609Z,97.26
2017-11-23T05:13:23.613Z,97.26
2017-11-23T05:14:23.604Z,97.73
2017-11-23T05:15:23.591Z,97.16
2017-11-23T05:16:23.568Z,97.26
2017-11-23T05:17:23.557Z,97.26
2017-11-23T05:18:23.542Z,97.54
2017-11-23T05:19:23.265Z,97.45
2017-11-23T05:20:23.512Z,97.35
2017-11-23T05:21:23.497Z,97.35
2017-11-23T05:22:23.497Z,97.45
2017-11-23T05:23:23.462Z,97.45
2017-11-23T05:24:23.469Z,97.64
2017-11-23T05:25:23.451Z,97.64
2017-11-23T05:26:23.442Z,97.45
2017-11-23T05:27:23.418Z,97.35
2017-11-23T05:28:23.408Z,97.35
2017-11-23T05:29:23.392Z,97.64
2017-11-23T05:30:23.376Z,97.45
2017-11-23T05:31:23.383Z,97.64
2017-11-23T05:32:23.361Z,97.26
2017-11-23T05:33:23.344Z,97.26
2017-11-23T05:34:23.325Z,97.35
2017-11-23T05:35:23.318Z,97.45
2017-11-23T05:36:23.292Z,97.64
2017-11-23T05:37:23.287Z,97.54
2017-11-23T05:38:23.009Z,97.35
2017-11-23T05:39:23.256Z,97.35
2017-11-23T05:40:23.240Z,97.54
2017-11-23T05:41:23.224Z,97.26
2017-11-23T05:42:23.230Z,97.73
2017-11-23T05:43:23.209Z,97.35
2017-11-23T05:44:23.194Z,97.64
2017-11-23T05:45:23.175Z,97.64
2017-11-23T05:46:23.164Z,97.64
2017-11-23T05:47:23.147Z,97.35
2017-11-23T05:48:22.872Z,97.54
2017-11-23T05:49:23.129Z,97.45
2017-11-23T05:50:23.097Z,97.26
2017-11-23T05:51:23.096Z,97.26
2017-11-23T05:52:23.085Z,97.16
2017-11-23T05:53:23.082Z,97.64
2017-11-23T05:54:23.066Z,97.26
2017-11-23T05:55:23.041Z,97.64
2017-11-23T05:56:23.029Z,97.45
2017-11-23T05:57:23.012Z,97.64
2017-11-23T05:58:22.995Z,97.54
2017-11-23T05:59:22.987Z,97.45
2017-11-23T06:00:22.987Z,97.26
2017-11-23T06:01:22.962Z,97.54
2017-11-23T06:02:22.953Z,97.26
2017-11-23T06:03:22.921Z,97.26
2017-11-23T06:04:22.920Z,97.26
2017-11-23T06:05:22.893Z,97.54
2017-11-23T06:06:22.900Z,97.26
2017-11-23T06:07:22.882Z,97.26
2017-11-23T06:08:22.862Z,97.26
2017-11-23T06:09:22.849Z,97.54
2017-11-23T06:10:22.582Z,97.54
2017-11-23T06:11:22.827Z,97.07
2017-11-23T06:12:22.820Z,97.26
2017-11-23T06:13:22.797Z,97.45
2017-11-23T06:14:22.789Z,97.54
2017-11-23T06:15:22.770Z,97.45
2017-11-23T06:16:22.764Z,97.35
2017-11-23T06:17:22.746Z,97.45
2017-11-23T06:18:22.729Z,97.45
2017-11-23T06:19:22.714Z,97.45
2017-11-23T06:20:22.715Z,97.54
2017-11-23T06:21:22.695Z,97.54
2017-11-23T06:22:22.416Z,97.45
2017-11-23T06:23:22.659Z,97.45
2017-11-23T06:24:22.663Z,96.97
2017-11-23T06:25:22.651Z,97.54
2017-11-23T06:26:22.630Z,97.45
2017-11-23T06:27:22.618Z,97.35
2017-11-23T06:28:22.604Z,97.35
2017-11-23T06:29:22.594Z,96.97
2017-11-23T06:30:22.570Z,97.26
2017-11-23T06:31:22.550Z,97.26
2017-11-23T06:32:22.547Z,97.54
2017-11-23T06:33:22.545Z,97.45
2017-11-23T06:34:22.522Z,96.97
2017-11-23T06:35:22.507Z,97.64
2017-11-23T06:36:22.492Z,97.54
2017-11-23T06:37:22.485Z,97.54
2017-11-23T06:38:22.468Z,97.45
2017-11-23T06:39:22.459Z,97.54
2017-11-23T06:40:22.448Z,97.45
2017-11-23T06:41:22.417Z,97.26
2017-11-23T06:42:22.410Z,97.16
2017-11-23T06:43:22.405Z,97.16
2017-11-23T06:44:22.391Z,97.54
2017-11-23T06:45:22.374Z,97.16
2017-11-23T06:46:22.354Z,97.35
2017-11-23T06:47:22.363Z,97.54
2017-11-23T06:48:22.335Z,97.35
2017-11-23T06:49:22.332Z,97.73
2017-11-23T06:50:22.311Z,97.45
2017-11-23T06:51:22.297Z,97.16
2017-11-23T06:52:22.023Z,97.16
2017-11-23T06:53:22.029Z,97.83
2017-11-23T06:54:22.261Z,97.07
2017-11-23T06:55:22.222Z,97.73
2017-11-23T06:56:22.230Z,97.64
2017-11-23T06:57:22.218Z,97.73
2017-11-23T06:58:22.210Z,97.16
2017-11-23T06:59:22.203Z,97.54
2017-11-23T07:00:22.468Z,97.07
2017-11-23T07:01:22.154Z,97.35
2017-11-23T07:02:22.145Z,97.54
2017-11-23T07:03:22.160Z,97.54
2017-11-23T07:04:22.179Z,97.35
2017-11-23T07:05:22.108Z,97.35
2017-11-23T07:06:22.093Z,97.26
2017-11-23T07:07:21.829Z,97.4
2017-11-23T07:08:22.105Z,97.4
2017-11-23T07:09:22.055Z,97.4
2017-11-23T07:10:21.810Z,97.31
2017-11-23T07:11:22.043Z,97.5
2017-11-23T07:12:22.054Z,97.5
2017-11-23T07:13:22.012Z,97.5
2017-11-23T07:14:22.000Z,97.69
2017-11-23T07:15:21.729Z,97.59
2017-11-23T07:16:22.408Z,97.5
2017-11-23T07:17:21.970Z,97.21
2017-11-23T07:18:21.939Z,97.31
2017-11-23T07:19:21.936Z,97.02
2017-11-23T07:20:21.919Z,97.12
2017-11-23T07:21:21.902Z,97.4
2017-11-23T07:22:21.896Z,97.21
2017-11-23T07:23:21.935Z,97.21
2017-11-23T07:24:21.865Z,97.36
2017-11-23T07:25:21.855Z,96.88
2017-11-23T07:26:21.891Z,96.97
2017-11-23T07:27:21.860Z,96.78
2017-11-23T07:28:21.859Z,96.88
2017-11-23T07:29:21.788Z,96.97
2017-11-23T07:30:21.774Z,96.88
2017-11-23T07:31:21.770Z,97.17
2017-11-23T07:32:21.755Z,96.97
2017-11-23T07:33:21.744Z,96.97
2017-11-23T07:34:21.741Z,96.12
2017-11-23T07:35:21.706Z,96.22
2017-11-23T07:36:21.705Z,96.41
2017-11-23T07:37:21.716Z,96.5
2017-11-23T07:38:21.704Z,96.26
2017-11-23T07:39:21.678Z,96.64
2017-11-23T07:40:21.662Z,96.45
2017-11-23T07:41:21.649Z,96.64
2017-11-23T07:42:21.626Z,96.36
2017-11-23T07:43:21.620Z,96.83
2017-11-23T07:44:21.600Z,96.83
2017-11-23T07:45:21.601Z,96.64
2017-11-23T07:46:21.590Z,96.64
2017-11-23T07:47:21.574Z,96.45
2017-11-23T07:48:21.567Z,96.64
2017-11-23T07:49:21.547Z,96.45
2017-11-23T07:50:21.554Z,96.74
2017-11-23T07:51:21.524Z,96.64
2017-11-23T07:52:21.510Z,96.88
2017-11-23T07:53:21.505Z,96.5
2017-11-23T07:54:21.234Z,96.41
2017-11-23T07:55:21.494Z,96.31
2017-11-23T07:56:21.467Z,96.69
2017-11-23T07:57:21.472Z,96.6
2017-11-23T07:58:21.452Z,96.6
2017-11-23T07:59:21.454Z,96.6
2017-11-23T08:00:21.164Z,96.5
2017-11-23T08:01:21.415Z,96.69
2017-11-23T08:02:21.141Z,96.98
2017-11-23T08:03:21.406Z,96.5
2017-11-23T08:04:21.382Z,96.5
2017-11-23T08:05:21.361Z,96.41
2017-11-23T08:06:21.376Z,96.31
2017-11-23T08:07:21.351Z,96.69
2017-11-23T08:08:21.336Z,96.08
2017-11-23T08:09:21.335Z,96.55
2017-11-23T08:10:21.330Z,96.26
2017-11-23T08:11:21.341Z,96.26
2017-11-23T08:12:21.287Z,96.26
2017-11-23T08:13:21.305Z,96.17
2017-11-23T08:14:21.281Z,95.98
2017-11-23T08:15:21.254Z,96.36
2017-11-23T08:16:21.275Z,96.26
2017-11-23T08:17:21.276Z,97.03
2017-11-23T08:18:21.248Z,96.65
2017-11-23T08:19:21.245Z,96.84
2017-11-23T08:20:21.212Z,96.26
2017-11-23T08:21:21.201Z,96.17
2017-11-23T08:22:21.204Z,96.65
2017-11-23T08:23:21.184Z,96.26
2017-11-23T08:24:21.169Z,96.36
2017-11-23T08:25:21.184Z,96.26
2017-11-23T08:26:21.144Z,96.36
2017-11-23T08:27:21.116Z,96.55
2017-11-23T08:28:21.121Z,96.03
2017-11-23T08:29:21.101Z,96.22
2017-11-23T08:30:21.098Z,96.79
2017-11-23T08:31:21.092Z,95.65
2017-11-23T08:32:21.084Z,96.22
2017-11-23T08:33:21.088Z,96.12
2017-11-23T08:34:21.061Z,95.84
2017-11-23T08:35:21.051Z,96.69
2017-11-23T08:36:21.034Z,95.94
2017-11-23T08:37:21.021Z,96.5
2017-11-23T08:38:21.011Z,95.36
2017-11-23T08:39:21.009Z,96.22
2017-11-23T08:40:21.001Z,95.84
2017-11-23T08:41:20.969Z,95.84
2017-11-23T08:42:20.977Z,95.65
2017-11-23T08:43:20.973Z,95.51
2017-11-23T08:44:20.940Z,95.51
2017-11-23T08:45:20.946Z,95.79
2017-11-23T08:46:20.915Z,95.41
2017-11-23T08:47:20.946Z,95.41
2017-11-23T08:48:20.897Z,95.6
2017-11-23T08:49:20.913Z,95.51
2017-11-23T08:50:20.628Z,95.41
2017-11-23T08:51:20.902Z,95.51
2017-11-23T08:52:21.183Z,95.32
2017-11-23T08:53:20.866Z,94.93
2017-11-23T08:54:20.880Z,94.84
2017-11-23T08:55:20.855Z,95.6
2017-11-23T08:56:20.838Z,94.74
2017-11-23T08:57:20.883Z,94.37
2017-11-23T08:58:20.852Z,94.56
2017-11-23T08:59:20.870Z,95.03
2017-11-23T09:00:20.872Z,94.65
2017-11-23T09:01:20.886Z,94.84
2017-11-23T09:02:20.820Z,94.46
2017-11-23T09:03:20.818Z,94.32
2017-11-23T09:04:20.794Z,93.79
2017-11-23T09:05:20.763Z,94.08
2017-11-23T09:06:20.746Z,93.94
2017-11-23T09:07:20.789Z,94.79
2017-11-23T09:08:20.748Z,94.89
2017-11-23T09:09:20.726Z,94.89
2017-11-23T09:10:20.703Z,94.98
2017-11-23T09:11:20.708Z,94.98
2017-11-23T09:12:20.686Z,95.08
2017-11-23T09:13:20.684Z,94.6
2017-11-23T09:14:20.659Z,94.51
2017-11-23T09:15:20.667Z,95.27
2017-11-23T09:16:20.637Z,94.13
2017-11-23T09:17:20.664Z,94.32
2017-11-23T09:18:20.629Z,94.7
2017-11-23T09:19:20.625Z,94.6
2017-11-23T09:20:20.852Z,93.74
2017-11-23T09:21:20.587Z,93.74
2017-11-23T09:22:20.328Z,93.37
2017-11-23T09:23:20.594Z,93.37
2017-11-23T09:24:20.572Z,93.65
2017-11-23T09:25:20.592Z,94.08
2017-11-23T09:26:20.593Z,93.79
2017-11-23T09:27:20.591Z,94.27
2017-11-23T09:28:20.295Z,94.65
2017-11-23T09:29:20.544Z,94.74
2017-11-23T09:30:20.506Z,94.17
2017-11-23T09:31:20.506Z,93.89
2017-11-23T09:32:20.509Z,93.89
2017-11-23T09:33:20.482Z,94.56
2017-11-23T09:34:20.478Z,93.79
2017-11-23T09:35:20.459Z,93.22
2017-11-23T09:36:20.465Z,93.03
2017-11-23T09:37:20.452Z,92.98
2017-11-23T09:38:20.449Z,92.84
2017-11-23T09:39:20.158Z,93.37
2017-11-23T09:40:20.675Z,92.6
2017-11-23T09:41:20.151Z,92.69
2017-11-23T09:42:20.410Z,92.79
2017-11-23T09:43:20.386Z,92.89
2017-11-23T09:44:20.146Z,92.5
2017-11-23T09:45:20.375Z,91.94
2017-11-23T09:46:20.410Z,91.65
2017-11-23T09:47:20.359Z,92.03
2017-11-23T09:48:20.349Z,93.17
2017-11-23T09:49:20.352Z,92.69
2017-11-23T09:50:20.329Z,92.6
2017-11-23T09:51:20.345Z,92.03
2017-11-23T09:52:20.314Z,92.5
2017-11-23T09:53:20.316Z,92.22
2017-11-23T09:54:20.305Z,92.84
2017-11-23T09:55:20.304Z,92.36
2017-11-23T09:56:20.300Z,92.27
2017-11-23T09:57:20.262Z,91.88
2017-11-23T09:58:20.276Z,91.88
2017-11-23T09:59:20.263Z,92.65
2017-11-23T10:00:20.249Z,92.65
2017-11-23T10:01:20.239Z,92.65
2017-11-23T10:02:20.239Z,92.93
2017-11-23T10:03:20.256Z,92.65
2017-11-23T10:04:20.271Z,93.41
2017-11-23T10:05:20.215Z,92.74
2017-11-23T10:06:20.221Z,92.55
2017-11-23T10:07:20.190Z,92.55
2017-11-23T10:08:20.186Z,92.65
2017-11-23T10:09:20.198Z,92.93
2017-11-23T10:10:20.206Z,92.46
2017-11-23T10:11:20.157Z,92.65
2017-11-23T10:12:20.374Z,93.12
2017-11-23T10:13:20.132Z,93.12
2017-11-23T10:14:20.152Z,93.7
2017-11-23T10:15:20.145Z,92.84
2017-11-23T10:16:20.124Z,93.7
2017-11-23T10:17:20.155Z,92.93
2017-11-23T10:18:20.100Z,92.65
2017-11-23T10:19:20.107Z,91.41
2017-11-23T10:20:20.093Z,91.79
2017-11-23T10:21:20.079Z,91.64
2017-11-23T10:22:20.077Z,92.69
2017-11-23T10:23:20.058Z,92.03
2017-11-23T10:24:20.066Z,93.17
2017-11-23T10:25:20.082Z,92.6
2017-11-23T10:26:20.033Z,91.74
2017-11-23T10:27:20.058Z,92.88
2017-11-23T10:28:20.022Z,92.6
2017-11-23T10:29:20.024Z,92.12
2017-11-23T10:30:20.024Z,92.22
2017-11-23T10:31:19.755Z,92.41
2017-11-23T10:32:20.010Z,91.55
2017-11-23T10:33:20.001Z,91.07
2017-11-23T10:34:19.977Z,89.93
2017-11-23T10:35:19.956Z,91.07
2017-11-23T10:36:19.967Z,91.55
2017-11-23T10:37:19.714Z,92.32
2017-11-23T10:38:19.959Z,92.5
2017-11-23T10:39:19.930Z,91.93
2017-11-23T10:40:19.946Z,91.64
2017-11-23T10:41:19.974Z,91.46
2017-11-23T10:42:19.907Z,92.22
2017-11-23T10:43:19.945Z,91.46
2017-11-23T10:44:19.960Z,90.12
2017-11-23T10:45:19.947Z,90.31
2017-11-23T10:46:20.130Z,91.36
2017-11-23T10:47:20.119Z,90.79
2017-11-23T10:48:19.875Z,90.98
2017-11-23T10:49:19.915Z,91.36
2017-11-23T10:50:19.908Z,90.98
2017-11-23T10:51:19.909Z,90.79
2017-11-23T10:52:19.884Z,91.55
2017-11-23T10:53:19.852Z,90.36
2017-11-23T10:54:20.352Z,89.5
2017-11-23T10:55:19.865Z,89.69
2017-11-23T10:56:19.823Z,89.97
2017-11-23T10:57:19.833Z,90.07
2017-11-23T10:58:19.847Z,89.4
2017-11-23T10:59:20.021Z,89.12
2017-11-23T11:00:19.833Z,89.97
2017-11-23T11:01:19.800Z,90.55
2017-11-23T11:02:19.828Z,89.78
2017-11-23T11:03:19.489Z,89.12
2017-11-23T11:04:19.783Z,88.64
2017-11-23T11:05:19.799Z,88.92
2017-11-23T11:06:19.770Z,89.59
2017-11-23T11:07:19.779Z,89.12
2017-11-23T11:08:19.761Z,88.73
2017-11-23T11:09:19.761Z,89.69
2017-11-23T11:10:19.723Z,89.31
2017-11-23T11:11:19.737Z,88.73
2017-11-23T11:12:19.924Z,88.4
2017-11-23T11:13:19.740Z,87.73
2017-11-23T11:14:19.452Z,88.16
2017-11-23T11:15:19.678Z,87.54
2017-11-23T11:16:19.677Z,87.73
2017-11-23T11:17:19.398Z,87.73
2017-11-23T11:18:19.653Z,89.35
2017-11-23T11:19:19.648Z,88.3
2017-11-23T11:20:19.686Z,88.3
2017-11-23T11:21:19.657Z,87.92
2017-11-23T11:22:19.616Z,87.54
2017-11-23T11:23:19.656Z,87.15
2017-11-23T11:24:19.853Z,86.49
2017-11-23T11:25:19.346Z,87.06
2017-11-23T11:26:19.632Z,87.44
2017-11-23T11:27:19.602Z,86.96
2017-11-23T11:28:19.560Z,86.87
2017-11-23T11:29:19.572Z,85.91
2017-11-23T11:30:19.557Z,85.67
2017-11-23T11:31:19.288Z,85.82
2017-11-23T11:32:19.531Z,86.05
2017-11-23T11:33:19.536Z,85.67
2017-11-23T11:34:19.558Z,85.58
2017-11-23T11:35:19.528Z,85.67
2017-11-23T11:36:19.531Z,85.86
2017-11-23T11:37:19.506Z,85.67
2017-11-23T11:38:19.527Z,85.1
2017-11-23T11:39:19.528Z,85.1
2017-11-23T11:40:19.541Z,85
2017-11-23T11:41:19.464Z,85.48
2017-11-23T11:42:19.491Z,85.19
2017-11-23T11:43:19.497Z,84.52
2017-11-23T11:44:19.503Z,84.52
2017-11-23T11:45:19.500Z,84.43
2017-11-23T11:46:19.489Z,84.33
2017-11-23T11:47:19.484Z,84.52
2017-11-23T11:48:19.449Z,85.29
2017-11-23T11:49:19.446Z,84.52
2017-11-23T11:50:19.422Z,83.76
2017-11-23T11:51:19.414Z,84.14
2017-11-23T11:52:19.408Z,84.66
2017-11-23T11:53:19.390Z,84.43
2017-11-23T11:54:19.397Z,84.28
2017-11-23T11:55:19.392Z,83.7
2017-11-23T11:56:19.379Z,83.99
2017-11-23T11:57:19.376Z,83.7
2017-11-23T11:58:19.364Z,83.23
2017-11-23T11:59:19.365Z,83.51
2017-11-23T12:00:19.363Z,83.42
2017-11-23T12:01:19.344Z,83.51
2017-11-23T12:02:19.331Z,83.04
2017-11-23T12:03:19.334Z,83.23
2017-11-23T12:04:19.315Z,82.65
2017-11-23T12:05:19.317Z,82.94
2017-11-23T12:06:19.052Z,83.13
2017-11-23T12:07:19.319Z,82.18
2017-11-23T12:08:19.309Z,82.56
2017-11-23T12:09:19.301Z,82.37
2017-11-23T12:10:19.292Z,82.56
2017-11-23T12:11:19.283Z,82.28
2017-11-23T12:12:19.270Z,82.28
2017-11-23T12:13:19.280Z,82.37
2017-11-23T12:14:19.284Z,82.65
2017-11-23T12:15:19.273Z,81.79
2017-11-23T12:16:19.277Z,81.79
2017-11-23T12:17:19.262Z,81.79
2017-11-23T12:18:19.276Z,82.08
2017-11-23T12:19:19.733Z,82.08
2017-11-23T12:20:19.248Z,82.94
2017-11-23T12:21:19.253Z,83.23
2017-11-23T12:22:19.212Z,82.56
2017-11-23T12:23:19.230Z,82.56
2017-11-23T12:24:19.210Z,82.08
2017-11-23T12:25:19.183Z,82.46
2017-11-23T12:26:19.177Z,82.28
2017-11-23T12:27:19.187Z,82.46
2017-11-23T12:28:19.182Z,81.99
2017-11-23T12:29:19.216Z,82.75
2017-11-23T12:30:19.183Z,82.28
2017-11-23T12:31:19.144Z,82.46
2017-11-23T12:32:19.170Z,82.37
2017-11-23T12:33:19.132Z,82.75
2017-11-23T12:34:19.157Z,83.23
2017-11-23T12:35:19.151Z,82.46
2017-11-23T12:36:19.140Z,82.46
2017-11-23T12:37:19.123Z,81.41
2017-11-23T12:38:19.100Z,81.6
2017-11-23T12:39:19.430Z,81.79
2017-11-23T12:40:19.105Z,81.99
2017-11-23T12:41:19.133Z,82.18
2017-11-23T12:42:19.100Z,81.89
2017-11-23T12:43:19.066Z,82.56
2017-11-23T12:44:19.071Z,82.18
2017-11-23T12:45:19.078Z,82.37
2017-11-23T12:46:19.055Z,82.56
2017-11-23T12:47:19.055Z,81.79
2017-11-23T12:48:19.043Z,81.6
2017-11-23T12:49:19.094Z,82.65
2017-11-23T12:50:19.037Z,82.46
2017-11-23T12:51:19.027Z,82.46
2017-11-23T12:52:19.041Z,82.94
2017-11-23T12:53:19.045Z,82.75
2017-11-23T12:54:19.026Z,82.75